createdAt,value
2018-12-01T00:01:41.713Z,98.70
2018-12-01T00:04:12.980Z,98.80
2018-12-01T00:06:45.242Z,98.80
2018-12-01T00:09:17.344Z,98.90
2018-12-01T00:11:48.584Z,98.90
2018-12-01T00:14:19.841Z,98.70
2018-12-01T00:16:49.773Z,98.60
2018-12-01T00:19:21.101Z,98.70
2018-12-01T00:21:52.987Z,98.70
2018-12-01T00:24:23.256Z,98.80
2018-12-01T00:26:54.321Z,98.80
2018-12-01T00:29:25.961Z,98.70
2018-12-01T00:31:56.155Z,98.80
2018-12-01T00:34:27.952Z,98.60
2018-12-01T00:36:58.441Z,98.70
2018-12-01T00:39:28.733Z,98.70
2018-12-01T00:41:59.653Z,98.70
2018-12-01T00:44:29.792Z,98.80
2018-12-01T00:47:01.622Z,98.90
2018-12-01T00:49:31.925Z,99.00
2018-12-01T00:52:02.881Z,99.00
2018-12-01T00:54:33.681Z,99.40
2018-12-01T00:57:04.341Z,99.20
2018-12-01T00:59:34.797Z,99.20
2018-12-01T01:02:18.006Z,99.30
2018-12-01T01:04:49.323Z,99.30
2018-12-01T01:07:20.241Z,99.40
2018-12-01T01:09:51.254Z,99.30
2018-12-01T01:12:22.340Z,99.30
2018-12-01T01:14:52.844Z,99.40
2018-12-01T01:17:23.432Z,99.40
2018-12-01T01:19:53.435Z,99.30
2018-12-01T01:22:24.064Z,99.30
2018-12-01T01:24:54.826Z,99.50
2018-12-01T01:27:26.284Z,99.70
2018-12-01T01:29:56.372Z,99.40
2018-12-01T01:32:26.460Z,99.40
2018-12-01T01:34:57.399Z,99.40
2018-12-01T01:37:27.555Z,99.30
2018-12-01T01:39:57.610Z,99.40
2018-12-01T01:42:27.920Z,99.20
2018-12-01T01:44:58.122Z,99.30
2018-12-01T01:47:30.176Z,99.20
2018-12-01T01:50:01.144Z,99.30
2018-12-01T01:52:31.244Z,99.20
2018-12-01T01:55:01.569Z,99.20
2018-12-01T01:57:31.451Z,99.60
2018-12-01T02:00:01.265Z,99.00
2018-12-01T02:02:31.992Z,99.00
2018-12-01T02:05:01.957Z,99.20
2018-12-01T02:07:33.190Z,99.10
2018-12-01T02:10:03.534Z,99.20
2018-12-01T02:12:33.607Z,99.10
2018-12-01T02:15:03.565Z,99.30
2018-12-01T02:17:33.494Z,99.20
2018-12-01T02:20:05.442Z,99.30
2018-12-01T02:22:35.186Z,99.20
2018-12-01T02:25:06.002Z,99.30
2018-12-01T02:27:36.143Z,99.20
2018-12-01T02:30:08.074Z,99.20
2018-12-01T02:32:38.591Z,99.20
2018-12-01T02:35:16.308Z,99.20
2018-12-01T02:37:46.411Z,99.10
2018-12-01T02:40:16.375Z,99.10
2018-12-01T02:42:47.755Z,98.80
2018-12-01T02:45:29.006Z,98.90
2018-12-01T02:47:59.085Z,98.90
2018-12-01T02:50:29.685Z,98.80
2018-12-01T02:53:01.745Z,98.90
2018-12-01T02:55:32.401Z,98.90
2018-12-01T02:58:02.280Z,98.80
2018-12-01T03:00:32.197Z,98.80
2018-12-01T03:03:02.960Z,98.90
2018-12-01T03:05:33.820Z,99.00
2018-12-01T03:08:04.129Z,98.80
2018-12-01T03:10:34.077Z,98.80
2018-12-01T03:13:05.992Z,98.80
2018-12-01T03:15:36.140Z,98.90
2018-12-01T03:18:07.012Z,98.90
2018-12-01T03:20:37.193Z,99.00
2018-12-01T03:23:09.010Z,98.90
2018-12-01T03:25:39.134Z,98.80
2018-12-01T03:28:10.215Z,98.80
2018-12-01T03:30:40.753Z,98.80
2018-12-01T03:33:10.904Z,99.00
2018-12-01T03:35:41.272Z,99.10
2018-12-01T03:38:11.372Z,99.00
2018-12-01T03:40:46.567Z,99.00
2018-12-01T03:43:16.760Z,99.10
2018-12-01T03:45:48.108Z,99.10
2018-12-01T03:48:18.647Z,99.00
2018-12-01T03:50:48.868Z,98.90
2018-12-01T03:53:21.129Z,98.90
2018-12-01T03:55:51.417Z,98.90
2018-12-01T03:58:22.484Z,99.00
2018-12-01T04:00:52.735Z,99.00
2018-12-01T04:03:22.930Z,99.00
2018-12-01T04:05:53.175Z,99.00
2018-12-01T04:08:24.560Z,99.00
2018-12-01T04:10:54.868Z,98.90
2018-12-01T04:13:25.071Z,99.00
2018-12-01T04:15:55.598Z,99.10
2018-12-01T04:18:25.436Z,99.00
2018-12-01T04:20:55.539Z,99.10
2018-12-01T04:23:25.682Z,99.10
2018-12-01T04:25:56.680Z,99.20
2018-12-01T04:28:26.880Z,99.30
2018-12-01T04:30:57.066Z,99.20
2018-12-01T04:33:27.826Z,99.20
2018-12-01T04:35:58.283Z,99.20
2018-12-01T04:38:28.740Z,99.30
2018-12-01T04:40:58.958Z,99.30
2018-12-01T04:43:29.100Z,99.40
2018-12-01T04:45:59.233Z,99.50
2018-12-01T04:48:29.541Z,99.30
2018-12-01T04:50:59.636Z,99.40
2018-12-01T04:53:29.576Z,99.50
2018-12-01T04:55:59.760Z,99.60
2018-12-01T04:58:30.668Z,99.90
2018-12-01T05:01:01.370Z,99.50
2018-12-01T05:03:32.689Z,99.70
2018-12-01T05:06:04.441Z,99.70
2018-12-01T05:08:34.813Z,99.80
2018-12-01T05:11:05.119Z,99.90
2018-12-01T05:13:35.870Z,99.90
2018-12-01T05:16:06.648Z,99.90
2018-12-01T05:18:36.721Z,99.90
2018-12-01T05:21:06.585Z,99.70
2018-12-01T05:23:37.440Z,99.70
2018-12-01T05:26:07.727Z,99.70
2018-12-01T05:28:37.836Z,99.80
2018-12-01T05:31:08.084Z,99.80
2018-12-01T05:33:38.185Z,99.70
2018-12-01T05:36:08.929Z,99.90
2018-12-01T05:38:39.346Z,99.90
2018-12-01T05:41:09.464Z,99.90
2018-12-01T05:43:39.448Z,99.90
2018-12-01T05:46:10.218Z,99.90
2018-12-01T05:48:40.559Z,99.90
2018-12-01T05:51:10.680Z,99.90
2018-12-01T05:53:40.701Z,99.90
2018-12-01T05:56:10.972Z,99.90
2018-12-01T05:58:41.475Z,99.90
2018-12-01T06:01:11.961Z,99.90
2018-12-01T06:03:42.163Z,99.90
2018-12-01T06:06:12.185Z,99.90
2018-12-01T06:08:42.487Z,99.90
2018-12-01T06:11:13.174Z,99.90
2018-12-01T06:13:43.420Z,99.90
2018-12-01T06:16:13.496Z,99.90
2018-12-01T06:18:44.440Z,99.90
2018-12-01T06:21:14.479Z,99.90
2018-12-01T06:23:45.123Z,99.90
2018-12-01T06:26:22.130Z,99.90
2018-12-01T06:28:52.627Z,99.90
2018-12-01T06:31:23.415Z,99.90
2018-12-01T06:33:54.189Z,99.90
2018-12-01T06:36:24.641Z,99.90
2018-12-01T06:38:54.885Z,99.90
2018-12-01T06:41:25.158Z,99.90
2018-12-01T06:43:55.689Z,99.90
2018-12-01T06:46:26.681Z,99.90
2018-12-01T06:48:58.399Z,99.90
2018-12-01T06:51:31.719Z,99.80
2018-12-01T06:54:03.279Z,99.70
2018-12-01T06:56:33.837Z,99.80
2018-12-01T06:59:05.341Z,99.60
2018-12-01T07:01:36.164Z,99.80
2018-12-01T07:04:06.627Z,99.70
2018-12-01T07:06:37.168Z,99.70
2018-12-01T07:09:14.477Z,99.70
2018-12-01T07:11:44.781Z,99.70
2018-12-01T07:14:14.722Z,99.70
2018-12-01T07:16:45.556Z,99.50
2018-12-01T07:19:17.896Z,99.50
2018-12-01T07:21:48.154Z,99.50
2018-12-01T07:24:18.949Z,99.50
2018-12-01T07:26:49.639Z,99.30
2018-12-01T07:29:20.074Z,99.50
2018-12-01T07:31:50.376Z,99.50
2018-12-01T07:34:20.569Z,99.50
2018-12-01T07:36:50.744Z,99.50
2018-12-01T07:39:22.264Z,99.50
2018-12-01T07:41:52.926Z,99.50
2018-12-01T07:44:23.464Z,99.50
2018-12-01T07:46:54.563Z,99.50
2018-12-01T07:49:28.088Z,99.60
2018-12-01T07:51:58.213Z,99.50
2018-12-01T07:54:28.653Z,99.50
2018-12-01T07:56:58.845Z,99.50
2018-12-01T07:59:30.769Z,99.40
2018-12-01T08:02:10.879Z,99.30
2018-12-01T08:04:44.650Z,99.20
2018-12-01T08:07:44.088Z,99.10
2018-12-01T08:10:33.310Z,99.00
2018-12-01T08:13:12.583Z,99.00
2018-12-01T08:15:46.271Z,98.90
2018-12-01T08:18:17.463Z,99.00
2018-12-01T08:20:47.712Z,98.90
2018-12-01T08:23:17.957Z,98.90
2018-12-01T08:25:48.918Z,98.70
2018-12-01T08:28:24.524Z,98.60
2018-12-01T08:30:56.131Z,98.50
2018-12-01T08:33:27.166Z,98.50
2018-12-01T08:35:57.904Z,98.40
2018-12-01T08:38:28.562Z,98.30
2018-12-01T08:40:59.367Z,98.30
2018-12-01T08:43:29.628Z,98.20
2018-12-01T08:45:59.756Z,98.10
2018-12-01T08:48:30.398Z,98.00
2018-12-01T08:51:01.712Z,97.90
2018-12-01T08:53:32.012Z,97.80
2018-12-01T08:56:02.676Z,97.70
2018-12-01T08:58:34.505Z,97.70
2018-12-01T09:01:04.850Z,97.70
2018-12-01T09:03:35.488Z,97.90
2018-12-01T09:06:11.337Z,97.60
2018-12-01T09:08:41.933Z,97.50
2018-12-01T09:11:13.102Z,97.50
2018-12-01T09:13:43.333Z,97.40
2018-12-01T09:16:14.340Z,97.40
2018-12-01T09:18:45.746Z,97.40
2018-12-01T09:21:17.445Z,97.40
2018-12-01T09:23:47.735Z,97.40
2018-12-01T09:26:19.231Z,97.30
2018-12-01T09:28:50.277Z,97.30
2018-12-01T09:31:21.316Z,97.10
2018-12-01T09:33:52.436Z,97.20
2018-12-01T09:36:23.462Z,97.10
2018-12-01T09:38:53.769Z,97.00
2018-12-01T09:41:24.085Z,97.00
2018-12-01T09:43:55.297Z,96.80
2018-12-01T09:46:28.771Z,96.70
2018-12-01T09:48:59.668Z,96.80
2018-12-01T09:51:34.717Z,96.60
2018-12-01T09:54:05.423Z,96.50
2018-12-01T09:56:37.503Z,96.60
2018-12-01T09:59:08.170Z,96.70
2018-12-01T10:01:38.380Z,96.70
2018-12-01T10:04:09.180Z,95.30
2018-12-01T10:06:40.720Z,95.50
2018-12-01T10:09:12.846Z,95.40
2018-12-01T10:11:43.130Z,93.20
2018-12-01T10:14:14.013Z,92.90
2018-12-01T10:16:45.575Z,92.70
2018-12-01T10:19:16.441Z,92.90
2018-12-01T10:21:47.592Z,93.10
2018-12-01T10:24:18.158Z,92.90
2018-12-01T10:26:49.297Z,92.80
2018-12-01T10:29:20.807Z,93.10
2018-12-01T10:31:51.488Z,92.40
2018-12-01T10:34:22.241Z,92.30
2018-12-01T10:36:53.573Z,92.30
2018-12-01T10:39:24.140Z,92.10
2018-12-01T10:41:56.098Z,91.70
2018-12-01T10:44:25.956Z,90.90
2018-12-01T10:46:58.537Z,91.20
2018-12-01T10:49:30.840Z,91.10
2018-12-01T10:52:01.986Z,91.10
2018-12-01T10:54:33.080Z,90.80
2018-12-01T10:57:05.500Z,90.90
2018-12-01T10:59:37.761Z,90.20
2018-12-01T11:02:18.505Z,89.50
2018-12-01T11:04:48.901Z,90.50
2018-12-01T11:07:20.533Z,89.40
2018-12-01T11:09:52.612Z,89.80
2018-12-01T11:12:23.257Z,87.90
2018-12-01T11:14:53.816Z,88.70
2018-12-01T11:17:24.250Z,86.80
2018-12-01T11:19:55.798Z,88.10
2018-12-01T11:22:26.390Z,88.60
2018-12-01T11:24:56.521Z,89.50
2018-12-01T11:27:27.204Z,87.70
2018-12-01T11:29:57.386Z,87.40
2018-12-01T11:32:28.952Z,85.90
2018-12-01T11:34:59.761Z,85.80
2018-12-01T11:37:32.200Z,85.40
2018-12-01T11:40:03.193Z,86.30
2018-12-01T11:42:35.954Z,88.10
2018-12-01T11:45:07.528Z,87.10
2018-12-01T11:47:38.544Z,88.50
2018-12-01T11:50:14.148Z,87.70
2018-12-01T11:52:45.144Z,86.90
2018-12-01T11:55:17.824Z,87.10
2018-12-01T11:57:47.950Z,87.60
2018-12-01T12:00:18.974Z,88.60
2018-12-01T12:02:49.174Z,88.90
2018-12-01T12:05:21.193Z,88.20
2018-12-01T12:08:03.894Z,89.20
2018-12-01T12:10:34.231Z,88.60
2018-12-01T12:13:06.232Z,89.70
2018-12-01T12:15:37.817Z,89.80
2018-12-01T12:18:09.133Z,89.30
2018-12-01T12:20:39.220Z,90.00
2018-12-01T12:23:11.401Z,90.20
2018-12-01T12:25:48.800Z,90.70
2018-12-01T12:28:20.017Z,90.30
2018-12-01T12:30:51.436Z,88.90
2018-12-01T12:33:22.319Z,90.00
2018-12-01T12:35:52.899Z,89.90
2018-12-01T12:38:25.853Z,89.70
2018-12-01T12:40:57.985Z,88.30
2018-12-01T12:43:28.553Z,89.00
2018-12-01T12:46:00.421Z,88.20
2018-12-01T12:48:30.651Z,88.90
2018-12-01T12:51:02.068Z,89.20
2018-12-01T12:53:32.495Z,86.90
2018-12-01T12:56:05.374Z,86.50
2018-12-01T12:58:37.472Z,86.60
2018-12-01T13:01:08.409Z,87.40
2018-12-01T13:03:44.763Z,87.40
2018-12-01T13:06:15.822Z,86.10
2018-12-01T13:08:49.179Z,86.70
2018-12-01T13:11:20.537Z,86.20
2018-12-01T13:13:53.524Z,85.60
2018-12-01T13:16:25.671Z,86.10
2018-12-01T13:18:57.693Z,87.10
2018-12-01T13:21:30.340Z,86.30
2018-12-01T13:24:02.340Z,86.40
2018-12-01T13:26:35.538Z,86.50
2018-12-01T13:29:07.596Z,88.60
2018-12-01T13:31:39.226Z,86.80
2018-12-01T13:34:13.404Z,85.10
2018-12-01T13:36:43.906Z,85.40
2018-12-01T13:39:16.528Z,86.00
2018-12-01T13:41:46.569Z,86.30
2018-12-01T13:44:20.151Z,86.00
2018-12-01T13:46:50.784Z,85.60
2018-12-01T13:49:21.308Z,85.90
2018-12-01T13:51:51.917Z,86.30
2018-12-01T13:54:22.280Z,86.00
2018-12-01T13:56:53.756Z,86.90
2018-12-01T13:59:24.999Z,86.70
2018-12-01T14:01:56.205Z,87.40
2018-12-01T14:04:26.394Z,88.00
2018-12-01T14:06:56.749Z,89.00
2018-12-01T14:09:28.292Z,88.70
2018-12-01T14:12:04.421Z,88.70
2018-12-01T14:14:39.109Z,88.90
2018-12-01T14:17:09.941Z,89.50
2018-12-01T14:19:42.037Z,89.80
2018-12-01T14:22:12.455Z,89.90
2018-12-01T14:24:44.821Z,89.90
2018-12-01T14:27:16.982Z,90.10
2018-12-01T14:29:47.182Z,90.00
2018-12-01T14:32:17.988Z,90.10
2018-12-01T14:34:50.482Z,90.00
2018-12-01T14:37:20.780Z,90.00
2018-12-01T14:39:52.722Z,90.20
2018-12-01T14:42:24.233Z,90.00
2018-12-01T14:44:56.788Z,90.20
2018-12-01T14:47:27.414Z,90.20
2018-12-01T14:49:58.630Z,90.30
2018-12-01T14:52:29.181Z,90.40
2018-12-01T14:55:00.183Z,90.50
2018-12-01T14:57:30.542Z,90.40
2018-12-01T15:00:01.130Z,90.40
2018-12-01T15:02:33.525Z,90.40
2018-12-01T15:05:06.327Z,90.30
2018-12-01T15:07:37.591Z,90.20
2018-12-01T15:10:15.804Z,90.00
2018-12-01T15:12:47.006Z,90.10
2018-12-01T15:15:19.252Z,90.10
2018-12-01T15:17:50.418Z,90.00
2018-12-01T15:20:21.876Z,90.00
2018-12-01T15:22:54.480Z,90.00
2018-12-01T15:25:26.021Z,90.10
2018-12-01T15:27:57.048Z,90.30
2018-12-01T15:30:28.652Z,90.10
2018-12-01T15:33:03.368Z,90.20
2018-12-01T15:35:34.293Z,90.00
2018-12-01T15:38:05.972Z,90.00
2018-12-01T15:40:36.762Z,90.10
2018-12-01T15:43:08.541Z,90.10
2018-12-01T15:45:44.700Z,90.10
2018-12-01T15:48:15.573Z,89.90
2018-12-01T15:50:47.381Z,89.70
2018-12-01T15:53:17.649Z,90.00
2018-12-01T15:55:50.061Z,89.60
2018-12-01T15:58:21.652Z,89.80
2018-12-01T16:00:52.908Z,89.90
2018-12-01T16:03:24.862Z,90.20
2018-12-01T16:05:55.732Z,89.00
2018-12-01T16:08:27.275Z,90.00
2018-12-01T16:10:58.850Z,90.00
2018-12-01T16:13:29.488Z,90.00
2018-12-01T16:16:06.938Z,90.00
2018-12-01T16:18:38.878Z,90.00
2018-12-01T16:21:13.314Z,90.00
2018-12-01T16:23:45.284Z,90.00
2018-12-01T16:26:17.723Z,90.00
2018-12-01T16:28:49.959Z,90.00
2018-12-01T16:31:21.597Z,90.00
2018-12-01T16:33:53.461Z,89.90
2018-12-01T16:36:35.198Z,89.60
2018-12-01T16:39:09.209Z,89.80
2018-12-01T16:41:40.793Z,89.70
2018-12-01T16:44:17.163Z,89.40
2018-12-01T16:46:53.342Z,89.20
2018-12-01T16:49:25.396Z,88.80
2018-12-01T16:51:57.614Z,89.20
2018-12-01T16:54:29.941Z,89.40
2018-12-01T16:57:00.745Z,89.50
2018-12-01T16:59:32.133Z,89.40
2018-12-01T17:02:10.916Z,89.50
2018-12-01T17:04:44.728Z,89.80
2018-12-01T17:07:17.037Z,89.30
2018-12-01T17:09:48.176Z,89.20
2018-12-01T17:12:22.293Z,89.20
2018-12-01T17:14:59.188Z,89.20
2018-12-01T17:17:45.834Z,88.90
2018-12-01T17:20:17.498Z,89.20
2018-12-01T17:22:50.944Z,89.40
2018-12-01T17:25:23.998Z,89.10
2018-12-01T17:27:57.436Z,89.30
2018-12-01T17:30:30.380Z,89.00
2018-12-01T17:33:02.400Z,89.10
2018-12-01T17:35:34.567Z,89.20
2018-12-01T17:38:08.134Z,89.40
2018-12-01T17:40:43.797Z,89.40
2018-12-01T17:43:16.422Z,89.30
2018-12-01T17:45:47.343Z,89.10
2018-12-01T17:48:18.819Z,89.40
2018-12-01T17:50:52.016Z,89.10
2018-12-01T17:53:24.035Z,89.40
2018-12-01T17:55:54.482Z,89.10
2018-12-01T17:58:25.449Z,89.50
2018-12-01T18:01:00.198Z,89.60
2018-12-01T18:03:35.218Z,89.30
2018-12-01T18:08:45.802Z,89.40
2018-12-01T18:11:17.511Z,89.20
2018-12-01T18:13:48.383Z,89.40
2018-12-01T18:16:20.918Z,89.40
2018-12-01T18:18:52.513Z,89.20
2018-12-01T18:21:25.623Z,89.00
2018-12-01T18:23:56.939Z,89.00
2018-12-01T18:26:33.020Z,89.30
2018-12-01T18:29:05.431Z,89.40
2018-12-01T18:31:36.997Z,90.00
2018-12-01T18:34:16.117Z,90.20
2018-12-01T18:36:52.152Z,90.60
2018-12-01T18:39:30.598Z,90.80
2018-12-01T18:42:01.041Z,91.10
2018-12-01T18:44:34.057Z,90.90
2018-12-01T18:47:04.800Z,91.00
2018-12-01T18:49:35.453Z,91.20
2018-12-01T18:52:06.775Z,91.10
2018-12-01T18:54:38.012Z,91.00
2018-12-01T18:57:09.087Z,90.90
2018-12-01T18:59:43.113Z,90.70
2018-12-01T19:02:14.310Z,90.60
2018-12-01T19:04:44.499Z,90.40
2018-12-01T19:07:15.476Z,90.50
2018-12-01T19:09:49.954Z,90.50
2018-12-01T19:12:27.835Z,90.60
2018-12-01T19:14:58.650Z,90.40
2018-12-01T19:17:29.096Z,90.50
2018-12-01T19:20:00.345Z,90.70
2018-12-01T19:22:30.854Z,91.00
2018-12-01T19:25:02.888Z,91.50
2018-12-01T19:27:33.197Z,92.50
2018-12-01T19:30:05.359Z,93.60
2018-12-01T19:32:35.224Z,94.20
2018-12-01T19:35:07.723Z,94.70
2018-12-01T19:37:38.067Z,95.00
2018-12-01T19:40:17.157Z,95.40
2018-12-01T19:42:49.433Z,95.40
2018-12-01T19:45:21.791Z,95.50
2018-12-01T19:47:53.626Z,95.60
2018-12-01T19:50:25.241Z,95.50
2018-12-01T19:52:56.831Z,95.50
2018-12-01T19:55:29.471Z,95.30
2018-12-01T19:58:00.455Z,95.30
2018-12-01T20:00:32.112Z,95.10
2018-12-01T20:03:04.286Z,95.20
2018-12-01T20:05:37.171Z,95.30
2018-12-01T20:08:09.573Z,95.80
2018-12-01T20:10:44.995Z,95.90
2018-12-01T20:13:34.671Z,96.00
2018-12-01T20:16:10.005Z,96.20
2018-12-01T20:18:41.124Z,95.90
2018-12-01T20:21:13.018Z,96.00
2018-12-01T20:23:44.377Z,96.00
2018-12-01T20:26:17.083Z,95.90
2018-12-01T20:28:47.861Z,96.00
2018-12-01T20:31:20.779Z,96.10
2018-12-01T20:33:51.845Z,96.20
2018-12-01T20:36:26.151Z,96.70
2018-12-01T20:40:01.693Z,96.60
2018-12-01T20:42:32.246Z,96.80
2018-12-01T20:47:42.383Z,97.10
2018-12-01T20:50:16.688Z,97.50
2018-12-01T20:52:48.301Z,97.20
2018-12-01T20:55:24.987Z,97.30
2018-12-01T20:57:58.701Z,97.10
2018-12-01T21:00:31.320Z,97.20
2018-12-01T21:03:02.624Z,97.10
2018-12-01T21:05:33.999Z,97.10
2018-12-01T21:08:05.918Z,97.10
2018-12-01T21:10:39.208Z,97.20
2018-12-01T21:13:10.327Z,97.10
2018-12-01T21:15:40.513Z,97.20
2018-12-01T21:18:12.228Z,97.50
2018-12-01T21:20:43.421Z,97.60
2018-12-01T21:23:16.734Z,97.60
2018-12-01T21:25:47.170Z,98.10
2018-12-01T21:28:18.982Z,98.30
2018-12-01T21:30:50.943Z,98.60
2018-12-01T21:33:25.578Z,98.60
2018-12-01T21:35:58.159Z,98.60
2018-12-01T21:38:31.401Z,98.80
2018-12-01T21:41:03.204Z,98.80
2018-12-01T21:43:36.108Z,98.70
2018-12-01T21:46:09.261Z,98.90
2018-12-01T21:48:40.061Z,98.90
2018-12-01T21:51:10.488Z,99.20
2018-12-01T21:53:40.501Z,99.30
2018-12-01T21:56:11.704Z,99.40
2018-12-01T21:58:43.068Z,99.10
2018-12-01T22:01:14.374Z,99.40
2018-12-01T22:03:44.980Z,99.30
2018-12-01T22:06:15.920Z,99.20
2018-12-01T22:08:46.020Z,99.10
2018-12-01T22:11:16.656Z,99.00
2018-12-01T22:13:48.560Z,98.80
2018-12-01T22:16:19.952Z,98.60
2018-12-01T22:18:53.121Z,98.50
2018-12-01T22:21:23.741Z,98.50
2018-12-01T22:23:54.873Z,98.40
2018-12-01T22:26:24.908Z,98.40
2018-12-01T22:28:56.240Z,98.40
2018-12-01T22:31:28.418Z,98.50
2018-12-01T22:33:59.250Z,98.60
2018-12-01T22:36:29.816Z,98.60
2018-12-01T22:39:01.058Z,98.50
2018-12-01T22:41:31.209Z,98.50
2018-12-01T22:44:03.006Z,98.30
2018-12-01T22:46:33.520Z,98.20
2018-12-01T22:49:03.647Z,98.00
2018-12-01T22:51:33.625Z,97.80
2018-12-01T22:54:08.159Z,97.80
2018-12-01T22:56:38.912Z,97.60
2018-12-01T22:59:09.228Z,97.40
2018-12-01T23:01:40.109Z,97.30
2018-12-01T23:04:12.140Z,97.10
2018-12-01T23:06:43.348Z,96.80
2018-12-01T23:09:14.661Z,96.60
2018-12-01T23:11:46.189Z,96.70
2018-12-01T23:14:16.364Z,96.50
2018-12-01T23:16:48.249Z,96.40
2018-12-01T23:19:19.630Z,96.40
2018-12-01T23:21:51.950Z,96.40
2018-12-01T23:24:22.632Z,96.10
2018-12-01T23:26:54.328Z,96.10
2018-12-01T23:29:25.101Z,95.90
2018-12-01T23:31:55.973Z,95.60
2018-12-01T23:34:26.155Z,95.40
2018-12-01T23:36:56.544Z,95.30
2018-12-01T23:39:31.537Z,95.30
2018-12-01T23:42:03.422Z,95.40
2018-12-01T23:44:36.416Z,95.40
2018-12-01T23:47:09.095Z,95.30
2018-12-01T23:49:39.225Z,95.20
2018-12-01T23:52:10.574Z,95.30
2018-12-01T23:54:41.965Z,95.20
2018-12-01T23:57:12.089Z,95.00
2018-12-01T23:59:42.349Z,95.10
